Terminal Aerodrome Forecast
Issued by NWS Shreveport, LA

Home | Current Version | Previous Version | Text Only | Print | Product List | Glossary On
Versions: 1 2 3 4 5 6 7 8 9 10 11 12 13 14 15 16 17 18 19 20
069
FTUS44 KSHV 022338
TAFSHV
TAF
KSHV 022338Z 0300/0324 34007KT P6SM SCT025 BKN035 BKN110
     FM030500 34005KT P6SM SCT035 BKN110
     FM030800 34005KT P6SM BKN030
     FM031200 35006KT P6SM BKN035
     FM031400 35007KT P6SM SCT035=

USA.gov is the U.S. government's official web portal to all federal, state and local government web resources and services.